sensor_id;sensor_type;location;lat;lon;timestamp;pressure;altitude;pressure_sealevel;temperature;humidity
59194;BME280;44967;48.598;15.650;2022-09-27T00:00:05;96801.97;;;14.21;58.66
59194;BME280;44967;48.598;15.650;2022-09-27T00:02:31;96784.78;;;14.17;58.25
59194;BME280;44967;48.598;15.650;2022-09-27T00:04:57;96792.66;;;14.15;58.75
59194;BME280;44967;48.598;15.650;2022-09-27T00:07:23;96795.56;;;14.28;58.99
59194;BME280;44967;48.598;15.650;2022-09-27T00:09:49;96789.50;;;14.17;58.60
59194;BME280;44967;48.598;15.650;2022-09-27T00:12:14;96791.34;;;14.23;58.17
59194;BME280;44967;48.598;15.650;2022-09-27T00:14:40;96784.06;;;14.13;58.75
59194;BME280;44967;48.598;15.650;2022-09-27T00:17:06;96785.16;;;14.19;58.38
59194;BME280;44967;48.598;15.650;2022-09-27T00:19:31;96790.16;;;14.24;59.17
59194;BME280;44967;48.598;15.650;2022-09-27T00:21:57;96756.56;;;14.17;58.83
59194;BME280;44967;48.598;15.650;2022-09-27T00:24:23;96750.50;;;14.25;58.92
59194;BME280;44967;48.598;15.650;2022-09-27T00:26:49;96747.50;;;14.40;59.20
59194;BME280;44967;48.598;15.650;2022-09-27T00:29:17;96753.38;;;14.42;57.27
59194;BME280;44967;48.598;15.650;2022-09-27T00:31:43;96749.97;;;14.34;58.30
59194;BME280;44967;48.598;15.650;2022-09-27T00:34:18;96761.53;;;14.46;58.70
59194;BME280;44967;48.598;15.650;2022-09-27T00:36:44;96766.19;;;14.49;58.62
59194;BME280;44967;48.598;15.650;2022-09-27T00:39:10;96742.41;;;14.18;58.98
59194;BME280;44967;48.598;15.650;2022-09-27T00:41:36;96751.25;;;14.06;58.59
59194;BME280;44967;48.598;15.650;2022-09-27T00:47:13;96749.09;;;14.17;58.40
59194;BME280;44967;48.598;15.650;2022-09-27T00:52:28;96757.41;;;14.34;59.81
59194;BME280;44967;48.598;15.650;2022-09-27T00:55:02;96738.22;;;14.10;60.15
59194;BME280;44967;48.598;15.650;2022-09-27T00:57:30;96738.47;;;14.19;58.53
59194;BME280;44967;48.598;15.650;2022-09-27T01:00:02;96735.16;;;14.28;58.34
59194;BME280;44967;48.598;15.650;2022-09-27T01:02:28;96737.16;;;14.28;59.38
59194;BME280;44967;48.598;15.650;2022-09-27T01:04:56;96741.78;;;14.31;59.66
59194;BME280;44967;48.598;15.650;2022-09-27T01:07:22;96742.06;;;14.36;59.52
59194;BME280;44967;48.598;15.650;2022-09-27T01:09:48;96751.81;;;14.41;58.80
59194;BME280;44967;48.598;15.650;2022-09-27T01:12:18;96744.06;;;14.36;59.39
59194;BME280;44967;48.598;15.650;2022-09-27T01:26:06;96732.03;;;14.50;59.60
59194;BME280;44967;48.598;15.650;2022-09-27T01:28:54;96732.03;;;14.50;58.02
59194;BME280;44967;48.598;15.650;2022-09-27T01:36:53;96712.59;;;14.40;58.75
59194;BME280;44967;48.598;15.650;2022-09-27T01:40:09;96708.91;;;14.47;59.88
59194;BME280;44967;48.598;15.650;2022-09-27T01:42:22;96678.91;;;14.36;59.52
59194;BME280;44967;48.598;15.650;2022-09-27T01:44:54;96698.84;;;14.40;59.66
59194;BME280;44967;48.598;15.650;2022-09-27T01:47:54;96687.47;;;14.42;59.17
59194;BME280;44967;48.598;15.650;2022-09-27T01:50:29;96675.41;;;14.36;59.03
59194;BME280;44967;48.598;15.650;2022-09-27T01:53:08;96680.69;;;14.47;59.07
59194;BME280;44967;48.598;15.650;2022-09-27T01:55:37;96681.25;;;14.38;58.91
59194;BME280;44967;48.598;15.650;2022-09-27T01:58:12;96683.78;;;14.49;59.14
59194;BME280;44967;48.598;15.650;2022-09-27T02:00:39;96698.59;;;14.55;59.20
59194;BME280;44967;48.598;15.650;2022-09-27T02:03:11;96680.84;;;14.39;58.69
59194;BME280;44967;48.598;15.650;2022-09-27T02:05:53;96678.00;;;14.43;59.14
59194;BME280;44967;48.598;15.650;2022-09-27T02:08:37;96690.97;;;14.63;58.28
59194;BME280;44967;48.598;15.650;2022-09-27T02:11:11;96685.06;;;14.44;59.61
59194;BME280;44967;48.598;15.650;2022-09-27T02:13:47;96658.06;;;14.39;59.03
59194;BME280;44967;48.598;15.650;2022-09-27T02:21:59;96658.41;;;14.41;59.56
59194;BME280;44967;48.598;15.650;2022-09-27T02:24:37;96630.53;;;14.43;59.74
59194;BME280;44967;48.598;15.650;2022-09-27T02:27:12;96641.78;;;14.48;59.33
59194;BME280;44967;48.598;15.650;2022-09-27T02:29:45;96617.22;;;14.41;58.90
59194;BME280;44967;48.598;15.650;2022-09-27T02:32:12;96625.63;;;14.54;59.46
59194;BME280;44967;48.598;15.650;2022-09-27T02:34:39;96631.97;;;14.67;59.19
59194;BME280;44967;48.598;15.650;2022-09-27T02:37:06;96612.78;;;14.47;59.29
59194;BME280;44967;48.598;15.650;2022-09-27T02:39:32;96610.03;;;14.47;59.03
59194;BME280;44967;48.598;15.650;2022-09-27T02:41:57;96616.66;;;14.50;59.63
59194;BME280;44967;48.598;15.650;2022-09-27T02:44:25;96614.63;;;14.54;59.79
59194;BME280;44967;48.598;15.650;2022-09-27T02:57:32;96600.66;;;14.45;59.42
59194;BME280;44967;48.598;15.650;2022-09-27T03:00:07;96604.75;;;14.57;59.58
59194;BME280;44967;48.598;15.650;2022-09-27T03:02:52;96628.28;;;14.78;59.24
59194;BME280;44967;48.598;15.650;2022-09-27T03:05:23;96608.72;;;14.72;59.46
59194;BME280;44967;48.598;15.650;2022-09-27T03:07:50;96609.47;;;14.76;59.57
59194;BME280;44967;48.598;15.650;2022-09-27T03:10:21;96608.78;;;14.68;59.79
59194;BME280;44967;48.598;15.650;2022-09-27T03:12:47;96605.72;;;14.66;59.49
59194;BME280;44967;48.598;15.650;2022-09-27T03:15:13;96599.78;;;14.68;59.18
59194;BME280;44967;48.598;15.650;2022-09-27T03:17:38;96591.97;;;14.66;59.19
59194;BME280;44967;48.598;15.650;2022-09-27T03:20:04;96580.56;;;14.68;59.64
59194;BME280;44967;48.598;15.650;2022-09-27T03:22:31;96593.84;;;14.73;59.48
59194;BME280;44967;48.598;15.650;2022-09-27T03:24:56;96587.47;;;14.76;58.86
59194;BME280;44967;48.598;15.650;2022-09-27T03:27:23;96572.63;;;14.74;58.83
59194;BME280;44967;48.598;15.650;2022-09-27T03:29:48;96582.66;;;14.80;58.26
59194;BME280;44967;48.598;15.650;2022-09-27T03:32:14;96576.31;;;14.84;59.14
59194;BME280;44967;48.598;15.650;2022-09-27T03:34:39;96593.78;;;14.93;59.42
59194;BME280;44967;48.598;15.650;2022-09-27T03:37:05;96571.31;;;14.78;58.60
59194;BME280;44967;48.598;15.650;2022-09-27T03:39:33;96571.16;;;14.86;59.57
59194;BME280;44967;48.598;15.650;2022-09-27T03:41:58;96561.53;;;14.77;59.45
59194;BME280;44967;48.598;15.650;2022-09-27T03:44:24;96532.66;;;14.69;59.34
59194;BME280;44967;48.598;15.650;2022-09-27T03:46:50;96562.00;;;14.72;58.64
59194;BME280;44967;48.598;15.650;2022-09-27T03:49:15;96581.03;;;14.83;59.24
59194;BME280;44967;48.598;15.650;2022-09-27T03:51:42;96555.84;;;14.68;58.08
59194;BME280;44967;48.598;15.650;2022-09-27T03:54:09;96563.22;;;14.71;59.45
59194;BME280;44967;48.598;15.650;2022-09-27T03:56:34;96569.78;;;14.77;59.83
59194;BME280;44967;48.598;15.650;2022-09-27T03:59:00;96572.19;;;14.75;59.10
59194;BME280;44967;48.598;15.650;2022-09-27T04:01:26;96554.59;;;14.52;59.66
59194;BME280;44967;48.598;15.650;2022-09-27T04:03:52;96556.84;;;14.58;59.92
59194;BME280;44967;48.598;15.650;2022-09-27T04:06:18;96545.00;;;14.61;59.21
59194;BME280;44967;48.598;15.650;2022-09-27T04:08:45;96552.75;;;14.66;59.94
59194;BME280;44967;48.598;15.650;2022-09-27T04:11:11;96542.22;;;14.44;59.32
59194;BME280;44967;48.598;15.650;2022-09-27T04:13:38;96546.09;;;14.47;60.68
59194;BME280;44967;48.598;15.650;2022-09-27T04:16:04;96539.81;;;14.46;60.26
59194;BME280;44967;48.598;15.650;2022-09-27T04:18:29;96538.97;;;14.49;59.69
59194;BME280;44967;48.598;15.650;2022-09-27T04:20:56;96550.16;;;14.59;60.06
59194;BME280;44967;48.598;15.650;2022-09-27T04:23:21;96542.41;;;14.53;59.69
59194;BME280;44967;48.598;15.650;2022-09-27T04:25:48;96541.22;;;14.54;59.83
59194;BME280;44967;48.598;15.650;2022-09-27T04:28:14;96545.66;;;14.48;59.83
59194;BME280;44967;48.598;15.650;2022-09-27T04:30:40;96549.53;;;14.51;60.22
59194;BME280;44967;48.598;15.650;2022-09-27T04:33:06;96562.59;;;14.47;60.26
59194;BME280;44967;48.598;15.650;2022-09-27T04:35:32;96558.97;;;14.50;60.53
59194;BME280;44967;48.598;15.650;2022-09-27T04:38:16;96572.97;;;14.56;60.31
59194;BME280;44967;48.598;15.650;2022-09-27T04:40:44;96553.78;;;14.35;59.88
59194;BME280;44967;48.598;15.650;2022-09-27T04:43:10;96536.13;;;14.16;61.51
59194;BME280;44967;48.598;15.650;2022-09-27T04:45:36;96564.81;;;14.52;60.85
59194;BME280;44967;48.598;15.650;2022-09-27T04:48:02;96553.63;;;14.43;61.10
59194;BME280;44967;48.598;15.650;2022-09-27T04:50:27;96553.06;;;14.51;59.78
59194;BME280;44967;48.598;15.650;2022-09-27T04:52:53;96547.41;;;14.59;59.49
59194;BME280;44967;48.598;15.650;2022-09-27T04:55:20;96558.28;;;14.83;60.36
59194;BME280;44967;48.598;15.650;2022-09-27T04:57:47;96545.91;;;14.74;59.31
59194;BME280;44967;48.598;15.650;2022-09-27T05:00:13;96569.38;;;14.79;59.52
59194;BME280;44967;48.598;15.650;2022-09-27T05:02:42;96543.16;;;14.74;58.85
59194;BME280;44967;48.598;15.650;2022-09-27T05:05:08;96530.69;;;14.70;59.24
59194;BME280;44967;48.598;15.650;2022-09-27T05:07:34;96537.94;;;14.80;60.04
59194;BME280;44967;48.598;15.650;2022-09-27T05:10:00;96526.28;;;14.72;60.27
59194;BME280;44967;48.598;15.650;2022-09-27T05:12:26;96520.47;;;14.70;60.09
59194;BME280;44967;48.598;15.650;2022-09-27T05:14:52;96528.91;;;14.79;59.76
59194;BME280;44967;48.598;15.650;2022-09-27T05:17:18;96543.44;;;14.80;59.96
59194;BME280;44967;48.598;15.650;2022-09-27T05:19:45;96516.91;;;14.73;59.81
59194;BME280;44967;48.598;15.650;2022-09-27T05:22:11;96512.22;;;14.70;60.34
59194;BME280;44967;48.598;15.650;2022-09-27T05:24:36;96510.25;;;14.71;59.31
59194;BME280;44967;48.598;15.650;2022-09-27T05:27:02;96498.56;;;14.66;59.27
59194;BME280;44967;48.598;15.650;2022-09-27T05:29:28;96502.47;;;14.86;59.79
59194;BME280;44967;48.598;15.650;2022-09-27T05:31:54;96489.41;;;14.73;60.48
59194;BME280;44967;48.598;15.650;2022-09-27T05:34:20;96488.22;;;14.74;60.42
59194;BME280;44967;48.598;15.650;2022-09-27T05:36:46;96486.47;;;14.80;60.48
59194;BME280;44967;48.598;15.650;2022-09-27T05:39:12;96484.09;;;14.83;59.92
59194;BME280;44967;48.598;15.650;2022-09-27T05:41:38;96485.63;;;14.84;59.61
59194;BME280;44967;48.598;15.650;2022-09-27T05:44:04;96493.09;;;14.83;60.25
59194;BME280;44967;48.598;15.650;2022-09-27T05:46:30;96485.53;;;14.71;60.35
59194;BME280;44967;48.598;15.650;2022-09-27T05:48:55;96483.81;;;14.77;60.14
59194;BME280;44967;48.598;15.650;2022-09-27T05:51:21;96495.06;;;14.99;59.87
59194;BME280;44967;48.598;15.650;2022-09-27T05:53:47;96506.06;;;14.99;59.23
59194;BME280;44967;48.598;15.650;2022-09-27T05:56:12;96493.38;;;14.89;60.41
59194;BME280;44967;48.598;15.650;2022-09-27T05:58:38;96475.75;;;14.86;59.99
59194;BME280;44967;48.598;15.650;2022-09-27T06:01:07;96482.63;;;14.94;60.30
59194;BME280;44967;48.598;15.650;2022-09-27T06:03:33;96503.81;;;15.11;59.91
59194;BME280;44967;48.598;15.650;2022-09-27T06:06:03;96514.13;;;15.23;60.11
59194;BME280;44967;48.598;15.650;2022-09-27T06:08:34;96491.19;;;15.13;59.83
59194;BME280;44967;48.598;15.650;2022-09-27T06:11:08;96494.72;;;15.14;59.94
59194;BME280;44967;48.598;15.650;2022-09-27T06:13:35;96500.31;;;15.10;60.51
59194;BME280;44967;48.598;15.650;2022-09-27T06:16:02;96498.50;;;15.20;59.90
59194;BME280;44967;48.598;15.650;2022-09-27T06:18:28;96496.06;;;15.22;60.27
59194;BME280;44967;48.598;15.650;2022-09-27T06:20:54;96512.41;;;15.29;59.75
59194;BME280;44967;48.598;15.650;2022-09-27T06:23:22;96520.88;;;15.35;60.20
59194;BME280;44967;48.598;15.650;2022-09-27T06:25:50;96515.47;;;15.31;59.85
59194;BME280;44967;48.598;15.650;2022-09-27T06:28:16;96535.94;;;15.30;60.32
59194;BME280;44967;48.598;15.650;2022-09-27T06:30:45;96529.13;;;15.35;60.63
59194;BME280;44967;48.598;15.650;2022-09-27T06:33:13;96544.06;;;15.51;60.44
59194;BME280;44967;48.598;15.650;2022-09-27T06:35:40;96533.72;;;15.55;60.87
59194;BME280;44967;48.598;15.650;2022-09-27T06:38:08;96525.00;;;15.43;60.21
59194;BME280;44967;48.598;15.650;2022-09-27T06:40:36;96546.94;;;15.30;60.17
59194;BME280;44967;48.598;15.650;2022-09-27T06:43:08;96544.63;;;15.29;60.53
59194;BME280;44967;48.598;15.650;2022-09-27T06:45:35;96543.22;;;15.37;60.56
59194;BME280;44967;48.598;15.650;2022-09-27T06:48:03;96542.84;;;15.52;60.70
59194;BME280;44967;48.598;15.650;2022-09-27T06:50:33;96544.63;;;15.58;60.26
59194;BME280;44967;48.598;15.650;2022-09-27T06:53:00;96549.84;;;15.69;60.22
59194;BME280;44967;48.598;15.650;2022-09-27T06:55:26;96539.88;;;15.75;60.44
59194;BME280;44967;48.598;15.650;2022-09-27T06:57:56;96545.81;;;15.74;61.10
59194;BME280;44967;48.598;15.650;2022-09-27T07:00:41;96561.38;;;15.81;60.99
59194;BME280;44967;48.598;15.650;2022-09-27T07:03:09;96553.91;;;15.65;60.55
59194;BME280;44967;48.598;15.650;2022-09-27T07:05:39;96555.47;;;15.66;60.68
59194;BME280;44967;48.598;15.650;2022-09-27T07:08:08;96560.78;;;15.73;61.15
59194;BME280;44967;48.598;15.650;2022-09-27T07:10:38;96572.38;;;15.81;60.56
59194;BME280;44967;48.598;15.650;2022-09-27T07:13:05;96567.16;;;15.70;60.51
59194;BME280;44967;48.598;15.650;2022-09-27T07:15:35;96578.44;;;15.88;59.59
59194;BME280;44967;48.598;15.650;2022-09-27T07:18:02;96578.81;;;15.90;60.88
59194;BME280;44967;48.598;15.650;2022-09-27T07:20:28;96573.13;;;15.81;60.61
59194;BME280;44967;48.598;15.650;2022-09-27T07:22:55;96580.44;;;15.88;59.96
59194;BME280;44967;48.598;15.650;2022-09-27T07:25:22;96597.88;;;15.98;59.89
59194;BME280;44967;48.598;15.650;2022-09-27T07:27:48;96577.16;;;15.93;60.37
59194;BME280;44967;48.598;15.650;2022-09-27T07:30:14;96590.50;;;15.95;60.17
59194;BME280;44967;48.598;15.650;2022-09-27T07:32:42;96584.47;;;16.00;60.32
59194;BME280;44967;48.598;15.650;2022-09-27T07:35:08;96581.53;;;16.07;60.25
59194;BME280;44967;48.598;15.650;2022-09-27T07:37:35;96599.50;;;16.12;60.45
59194;BME280;44967;48.598;15.650;2022-09-27T07:40:04;96578.91;;;15.87;60.08
59194;BME280;44967;48.598;15.650;2022-09-27T07:42:32;96586.28;;;15.90;61.13
59194;BME280;44967;48.598;15.650;2022-09-27T07:44:58;96580.97;;;15.83;60.46
59194;BME280;44967;48.598;15.650;2022-09-27T07:47:24;96578.38;;;15.92;60.97
59194;BME280;44967;48.598;15.650;2022-09-27T07:49:51;96598.72;;;16.11;61.31
59194;BME280;44967;48.598;15.650;2022-09-27T07:52:18;96570.53;;;15.90;60.75
59194;BME280;44967;48.598;15.650;2022-09-27T07:54:45;96573.94;;;16.11;60.91
59194;BME280;44967;48.598;15.650;2022-09-27T07:57:11;96572.28;;;16.14;60.22
59194;BME280;44967;48.598;15.650;2022-09-27T07:59:38;96574.31;;;16.26;60.39
59194;BME280;44967;48.598;15.650;2022-09-27T08:02:03;96567.59;;;16.27;59.79
59194;BME280;44967;48.598;15.650;2022-09-27T08:04:29;96557.88;;;16.23;60.55
59194;BME280;44967;48.598;15.650;2022-09-27T08:06:55;96559.00;;;16.38;59.92
59194;BME280;44967;48.598;15.650;2022-09-27T08:09:20;96557.22;;;16.44;58.96
59194;BME280;44967;48.598;15.650;2022-09-27T08:11:46;96547.44;;;16.43;59.37
59194;BME280;44967;48.598;15.650;2022-09-27T08:14:13;96567.50;;;16.57;59.27
59194;BME280;44967;48.598;15.650;2022-09-27T08:16:40;96561.56;;;16.58;59.97
59194;BME280;44967;48.598;15.650;2022-09-27T08:19:06;96569.06;;;16.58;59.33
59194;BME280;44967;48.598;15.650;2022-09-27T08:21:32;96576.34;;;16.78;59.74
59194;BME280;44967;48.598;15.650;2022-09-27T08:23:58;96572.59;;;16.58;59.91
59194;BME280;44967;48.598;15.650;2022-09-27T08:26:26;96582.41;;;16.72;60.18
59194;BME280;44967;48.598;15.650;2022-09-27T08:28:53;96574.13;;;16.59;59.28
59194;BME280;44967;48.598;15.650;2022-09-27T08:31:18;96573.34;;;16.59;60.59
59194;BME280;44967;48.598;15.650;2022-09-27T08:33:48;96566.63;;;16.60;59.45
59194;BME280;44967;48.598;15.650;2022-09-27T08:36:15;96569.94;;;16.68;59.52
59194;BME280;44967;48.598;15.650;2022-09-27T08:38:42;96564.44;;;16.68;59.90
59194;BME280;44967;48.598;15.650;2022-09-27T08:41:35;96574.47;;;16.75;58.90
59194;BME280;44967;48.598;15.650;2022-09-27T08:46:50;96590.56;;;17.15;59.34
59194;BME280;44967;48.598;15.650;2022-09-27T08:49:32;96591.66;;;17.18;58.11
59194;BME280;44967;48.598;15.650;2022-09-27T08:52:03;96575.88;;;17.31;59.31
59194;BME280;44967;48.598;15.650;2022-09-27T08:54:31;96570.31;;;17.44;58.12
59194;BME280;44967;48.598;15.650;2022-09-27T08:57:08;96568.88;;;17.52;57.89
59194;BME280;44967;48.598;15.650;2022-09-27T08:59:40;96566.69;;;17.47;58.71
59194;BME280;44967;48.598;15.650;2022-09-27T09:02:18;96575.63;;;17.74;57.67
59194;BME280;44967;48.598;15.650;2022-09-27T09:04:47;96566.47;;;17.77;58.12
59194;BME280;44967;48.598;15.650;2022-09-27T09:22:21;96556.66;;;17.98;56.76
59194;BME280;44967;48.598;15.650;2022-09-27T09:25:11;96565.94;;;18.04;58.50
59194;BME280;44967;48.598;15.650;2022-09-27T09:28:06;96574.72;;;18.34;57.64
59194;BME280;44967;48.598;15.650;2022-09-27T09:33:37;96559.06;;;18.09;57.68
59194;BME280;44967;48.598;15.650;2022-09-27T09:38:47;96540.50;;;18.41;56.65
59194;BME280;44967;48.598;15.650;2022-09-27T09:41:19;96568.75;;;18.68;55.77
59194;BME280;44967;48.598;15.650;2022-09-27T09:43:54;96551.53;;;19.04;55.75
59194;BME280;44967;48.598;15.650;2022-09-27T09:46:29;96538.50;;;19.24;55.08
59194;BME280;44967;48.598;15.650;2022-09-27T09:49:02;96542.31;;;18.67;53.76
59194;BME280;44967;48.598;15.650;2022-09-27T09:51:37;96537.25;;;19.06;54.54
59194;BME280;44967;48.598;15.650;2022-09-27T09:56:42;96544.16;;;19.11;54.67
59194;BME280;44967;48.598;15.650;2022-09-27T09:59:28;96525.00;;;19.35;52.67
59194;BME280;44967;48.598;15.650;2022-09-27T10:02:00;96524.06;;;19.38;52.73
59194;BME280;44967;48.598;15.650;2022-09-27T10:04:33;96525.91;;;19.88;53.05
59194;BME280;44967;48.598;15.650;2022-09-27T10:07:00;96519.44;;;20.10;53.05
59194;BME280;44967;48.598;15.650;2022-09-27T10:09:26;96527.47;;;19.89;50.54
59194;BME280;44967;48.598;15.650;2022-09-27T10:11:53;96526.38;;;20.05;52.04
59194;BME280;44967;48.598;15.650;2022-09-27T10:14:20;96511.63;;;19.80;51.76
59194;BME280;44967;48.598;15.650;2022-09-27T10:16:48;96527.09;;;20.34;51.22
59194;BME280;44967;48.598;15.650;2022-09-27T10:19:27;96505.38;;;20.75;49.19
59194;BME280;44967;48.598;15.650;2022-09-27T10:21:58;96487.25;;;20.22;48.37
59194;BME280;44967;48.598;15.650;2022-09-27T10:24:26;96491.00;;;20.43;49.85
59194;BME280;44967;48.598;15.650;2022-09-27T10:26:56;96487.59;;;20.91;50.27
59194;BME280;44967;48.598;15.650;2022-09-27T10:29:33;96490.00;;;20.22;49.85
59194;BME280;44967;48.598;15.650;2022-09-27T10:32:02;96514.56;;;19.58;45.48
59194;BME280;44967;48.598;15.650;2022-09-27T10:34:34;96499.75;;;19.14;47.75
59194;BME280;44967;48.598;15.650;2022-09-27T10:39:38;96522.84;;;19.30;48.47
59194;BME280;44967;48.598;15.650;2022-09-27T10:42:29;96530.84;;;19.37;49.58
59194;BME280;44967;48.598;15.650;2022-09-27T10:44:56;96490.22;;;19.15;47.98
59194;BME280;44967;48.598;15.650;2022-09-27T10:47:23;96504.69;;;19.29;47.43
59194;BME280;44967;48.598;15.650;2022-09-27T10:50:03;96516.06;;;19.87;48.16
59194;BME280;44967;48.598;15.650;2022-09-27T10:52:29;96503.78;;;19.51;45.31
59194;BME280;44967;48.598;15.650;2022-09-27T10:55:01;96507.97;;;18.86;46.92
59194;BME280;44967;48.598;15.650;2022-09-27T10:57:30;96511.47;;;18.77;47.36
59194;BME280;44967;48.598;15.650;2022-09-27T11:00:05;96517.13;;;18.64;47.26
59194;BME280;44967;48.598;15.650;2022-09-27T11:02:34;96495.03;;;18.74;47.09
59194;BME280;44967;48.598;15.650;2022-09-27T11:05:11;96498.09;;;18.76;47.77
59194;BME280;44967;48.598;15.650;2022-09-27T11:07:48;96508.22;;;18.70;48.74
59194;BME280;44967;48.598;15.650;2022-09-27T11:10:26;96508.66;;;19.09;46.61
59194;BME280;44967;48.598;15.650;2022-09-27T11:13:14;96516.81;;;19.13;47.03
59194;BME280;44967;48.598;15.650;2022-09-27T11:18:49;96503.78;;;18.72;46.45
59194;BME280;44967;48.598;15.650;2022-09-27T11:21:32;96521.59;;;19.22;46.52
59194;BME280;44967;48.598;15.650;2022-09-27T11:37:16;96484.25;;;18.67;45.97
59194;BME280;44967;48.598;15.650;2022-09-27T11:40:03;96479.84;;;18.78;46.01
59194;BME280;44967;48.598;15.650;2022-09-27T11:45:56;96484.53;;;19.19;44.86
59194;BME280;44967;48.598;15.650;2022-09-27T11:48:52;96493.13;;;19.02;45.31
59194;BME280;44967;48.598;15.650;2022-09-27T11:54:05;96500.06;;;18.66;45.91
59194;BME280;44967;48.598;15.650;2022-09-27T11:56:48;96475.97;;;18.76;45.48
59194;BME280;44967;48.598;15.650;2022-09-27T12:05:23;96524.53;;;19.37;44.22
59194;BME280;44967;48.598;15.650;2022-09-27T12:11:03;96484.31;;;18.95;45.20
59194;BME280;44967;48.598;15.650;2022-09-27T12:13:39;96485.22;;;18.73;43.62
59194;BME280;44967;48.598;15.650;2022-09-27T12:16:07;96477.72;;;18.42;44.12
59194;BME280;44967;48.598;15.650;2022-09-27T12:18:36;96490.81;;;19.10;44.41
59194;BME280;44967;48.598;15.650;2022-09-27T12:21:05;96489.91;;;19.13;43.51
59194;BME280;44967;48.598;15.650;2022-09-27T12:23:45;96489.00;;;19.07;43.30
59194;BME280;44967;48.598;15.650;2022-09-27T12:26:17;96487.88;;;18.54;43.22
59194;BME280;44967;48.598;15.650;2022-09-27T12:28:58;96510.09;;;18.73;45.15
59194;BME280;44967;48.598;15.650;2022-09-27T12:31:34;96504.16;;;18.93;45.54
59194;BME280;44967;48.598;15.650;2022-09-27T12:36:55;96488.69;;;19.33;44.20
59194;BME280;44967;48.598;15.650;2022-09-27T12:39:49;96515.78;;;19.48;43.35
59194;BME280;44967;48.598;15.650;2022-09-27T12:42:33;96507.16;;;19.55;42.54
59194;BME280;44967;48.598;15.650;2022-09-27T12:45:01;96521.03;;;19.73;42.40
59194;BME280;44967;48.598;15.650;2022-09-27T12:50:42;96529.63;;;19.94;42.05
59194;BME280;44967;48.598;15.650;2022-09-27T12:53:16;96526.88;;;19.66;41.71
59194;BME280;44967;48.598;15.650;2022-09-27T13:07:04;96522.97;;;19.08;42.31
59194;BME280;44967;48.598;15.650;2022-09-27T13:12:18;96540.84;;;19.35;42.51
59194;BME280;44967;48.598;15.650;2022-09-27T13:23:01;96545.41;;;19.19;41.26
59194;BME280;44967;48.598;15.650;2022-09-27T13:25:53;96544.63;;;19.09;41.72
59194;BME280;44967;48.598;15.650;2022-09-27T13:30:57;96534.16;;;18.63;42.80
59194;BME280;44967;48.598;15.650;2022-09-27T13:33:45;96526.56;;;18.45;41.93
59194;BME280;44967;48.598;15.650;2022-09-27T13:47:01;96516.88;;;18.81;42.29
59194;BME280;44967;48.598;15.650;2022-09-27T13:49:38;96540.66;;;19.20;41.86
59194;BME280;44967;48.598;15.650;2022-09-27T13:52:34;96538.66;;;18.79;44.03
59194;BME280;44967;48.598;15.650;2022-09-27T13:57:56;96553.38;;;18.35;42.79
59194;BME280;44967;48.598;15.650;2022-09-27T14:00:26;96531.69;;;18.56;43.15
59194;BME280;44967;48.598;15.650;2022-09-27T14:03:03;96523.94;;;18.82;41.96
59194;BME280;44967;48.598;15.650;2022-09-27T14:05:37;96532.47;;;19.07;42.23
59194;BME280;44967;48.598;15.650;2022-09-27T14:08:04;96542.03;;;18.74;43.59
59194;BME280;44967;48.598;15.650;2022-09-27T14:10:32;96538.94;;;19.03;42.54
59194;BME280;44967;48.598;15.650;2022-09-27T14:12:59;96531.19;;;18.98;42.52
59194;BME280;44967;48.598;15.650;2022-09-27T14:15:29;96548.97;;;19.20;42.68
59194;BME280;44967;48.598;15.650;2022-09-27T14:17:56;96540.19;;;19.12;42.66
59194;BME280;44967;48.598;15.650;2022-09-27T14:20:41;96547.00;;;18.88;41.89
59194;BME280;44967;48.598;15.650;2022-09-27T14:23:25;96539.13;;;19.18;43.44
59194;BME280;44967;48.598;15.650;2022-09-27T14:25:53;96534.66;;;19.21;42.00
59194;BME280;44967;48.598;15.650;2022-09-27T14:28:30;96525.72;;;18.67;41.79
59194;BME280;44967;48.598;15.650;2022-09-27T14:31:09;96529.56;;;18.60;43.27
59194;BME280;44967;48.598;15.650;2022-09-27T14:33:38;96523.81;;;18.86;43.06
59194;BME280;44967;48.598;15.650;2022-09-27T14:36:06;96536.28;;;19.00;42.85
59194;BME280;44967;48.598;15.650;2022-09-27T14:38:50;96540.34;;;19.17;43.45
59194;BME280;44967;48.598;15.650;2022-09-27T14:41:16;96537.81;;;19.01;42.51
59194;BME280;44967;48.598;15.650;2022-09-27T14:43:44;96537.19;;;18.24;43.05
59194;BME280;44967;48.598;15.650;2022-09-27T14:46:27;96536.03;;;18.12;43.67
59194;BME280;44967;48.598;15.650;2022-09-27T14:48:54;96541.81;;;18.27;43.73
59194;BME280;44967;48.598;15.650;2022-09-27T14:51:29;96546.75;;;18.32;44.19
59194;BME280;44967;48.598;15.650;2022-09-27T14:53:57;96550.50;;;18.80;43.60
59194;BME280;44967;48.598;15.650;2022-09-27T14:56:32;96556.69;;;18.84;43.81
59194;BME280;44967;48.598;15.650;2022-09-27T14:59:03;96550.09;;;18.59;42.08
59194;BME280;44967;48.598;15.650;2022-09-27T15:01:33;96571.91;;;18.57;43.13
59194;BME280;44967;48.598;15.650;2022-09-27T15:04:10;96581.34;;;18.15;43.04
59194;BME280;44967;48.598;15.650;2022-09-27T15:06:37;96560.31;;;17.95;43.24
59194;BME280;44967;48.598;15.650;2022-09-27T15:09:04;96601.22;;;18.22;43.00
59194;BME280;44967;48.598;15.650;2022-09-27T15:11:31;96572.09;;;17.51;42.85
59194;BME280;44967;48.598;15.650;2022-09-27T15:13:59;96589.59;;;17.70;42.83
59194;BME280;44967;48.598;15.650;2022-09-27T15:16:26;96584.97;;;17.54;43.00
59194;BME280;44967;48.598;15.650;2022-09-27T15:19:00;96601.50;;;18.02;42.30
59194;BME280;44967;48.598;15.650;2022-09-27T15:21:36;96594.56;;;17.98;41.64
59194;BME280;44967;48.598;15.650;2022-09-27T15:24:03;96587.53;;;17.84;42.15
59194;BME280;44967;48.598;15.650;2022-09-27T15:26:42;96607.66;;;17.84;43.30
59194;BME280;44967;48.598;15.650;2022-09-27T15:29:20;96598.34;;;17.56;42.94